Terminal Aerodrome Forecast
Issued by NWS Cleveland, OH

Home | Current Version | Previous Version | Graphics & Text | Print | Product List | Glossary On
Versions: 1 2 3 4 5 6 7 8 9 10 11 12 13 14 15 16 17 18
000
FTUS41 KCLE 302100 AAB
TAFMFD
TAF AMD
KMFD 302111Z 3021/0118 34007KT P6SM -SHRA BKN015 OVC050
      TEMPO 3021/3023 BKN008
     FM010100 35007KT 5SM BR VCSH OVC007
     FM010900 34007KT P6SM BKN012 OVC020
     FM011200 35005KT P6SM BKN060=

USA.gov is the U.S. government's official web portal to all federal, state and local government web resources and services.